Station UQXA2 - Utquigvik, AK Image indicating link to RSS feed of recent meteorological observations for station UQXA2


Conditions at UQXA2 as of
(11:44 am AKDT)
1944 GMT on 05/22/2024:
     

Click on the graph icon in the table below to see a time series plot of the last five days of that observation.

5-day plot - Wind Direction Wind Direction (WDIR):NNE ( 30 deg true )
5-day plot - Wind Speed Wind Speed (WSPD): 12 kts
5-day plot - Wind Gust Wind Gust (GST): 17 kts
5-day plot - Air Temperature Air Temperature (ATMP): 24.8 °F
5-day plot - Dew Point Dew Point (DEWP): 24.8 °F
5-day plot - Wind Chill Wind Chill (CHILL): 12.9 °F
5-day plot - Wind Speed at 10 Meters Wind Speed at 10 meters (WSPD10M): 12 kts
5-day plot - Wind Speed at 20 Meters Wind Speed at 20 meters (WSPD20M): 12 kts
5-day plot -  Wind Speed, Wind Gust and Atmospheric Pressure Combined plot of Wind Speed, Gust, and Air Pressure
Previous observations
TIME
(AKDT)
5-day plot - Wind Direction
WDIR
 
5-day plot - Wind Speed
WSPD
kts
5-day plot - Wind Gust
GST
kts
5-day plot - Wave Height
WVHT
ft
5-day plot - Dominant Wave Period
DPD
sec
5-day plot - Average Wave Period
APD
sec
5-day plot - Mean Wave Direction
MWD
 
5-day plot - Atmospheric Pressure
PRES
in
5-day plot - Pressure Tendency
PTDY
in
5-day plot - Air Temperature
ATMP
°F
5-day plot - Water Temperature
WTMP
°F
5-day plot - Dew Point
DEWP
°F
5-day plot - Salinity
SAL
psu
5-day plot - Visibility
VIS
nmi
5-day plot - Tide (above MLLW)
TIDE
ft
2024-05-22 11:34 amNNE 12 18------ 24.8- 24.8---
2024-05-22 11:24 amNNE 14 18------ 25.0- 25.0---
2024-05-22 11:14 amNNE 13 19------ 25.2- 25.2---
2024-05-22 11:03 amNNE 13 19------ 25.2- 25.2---
2024-05-22 10:53 amNNE 13 19------ 25.0- 25.0---
2024-05-22 10:43 amNNE 12 19------ 25.3- 25.3---
2024-05-22 10:34 amNNE 12 18------ 25.3- 25.3---
2024-05-22 10:23 amNNE 12 16------ 25.5- 25.5---
2024-05-22 10:13 amNNE 12 17------ 25.7- 25.7---
2024-05-22 10:04 am NE 13 17------ 25.7- 25.7---
2024-05-22 09:53 am NE 15 20------ 25.5- 25.5---
2024-05-22 09:44 amNNE 15 21------ 25.7- 25.7---
2024-05-22 09:33 am NE 15 19------ 25.9- 25.9---
2024-05-22 09:24 am NE 16 21------ 25.7- 25.7---
2024-05-22 09:14 amNNE 14 19------ 25.9- 25.9---
2024-05-22 09:04 amNNE 13 18------ 26.1- 26.1---
2024-05-22 08:54 amNNE 16 21------ 25.9- 25.9---
2024-05-22 08:44 am NE 15 22------ 25.9- 25.9---
2024-05-22 08:34 am NE 15 23------ 25.9- 25.9---
2024-05-22 08:24 am NE 15 21------ 25.9- 25.9---
2024-05-22 08:14 am NE 16 22------ 25.7- 25.7---
2024-05-22 08:04 amNNE 14 20------ 25.5- 25.5---
2024-05-22 07:54 am NE 16 21------ 25.3- 25.3---
2024-05-22 07:33 amNNE 15 23------ 25.7- 25.7---
2024-05-22 07:23 am NE 13 18------ 25.9- 25.9---
2024-05-22 07:14 am NE 12 16------ 26.2- 26.2---
2024-05-22 07:04 am NE 13 19------ 26.1- 26.1---
2024-05-22 06:54 amNNE 13 19------ 26.1- 26.1---
2024-05-22 06:44 amNNE 15 21------ 26.1- 26.1---
2024-05-22 06:34 amNNE 13 20------ 26.1- 26.1---
2024-05-22 06:24 am NE 16 21------ 26.1- 26.1---
2024-05-22 06:14 amNNE 16 21------ 26.1- 26.1---
2024-05-22 06:04 amNNE 15 20------ 26.2- 26.2---
2024-05-22 05:54 amNNE 14 20------ 26.2- 26.2---
2024-05-22 05:44 amNNE 15 19------ 26.1- 26.1---
2024-05-22 05:34 am NE 15 20------ 26.1- 26.1---
2024-05-22 05:24 amNNE 15 20------ 25.9- 25.9---
2024-05-22 05:14 amNNE 16 22------ 25.7- 25.7---
2024-05-22 05:04 amNNE 14 21------ 25.5- 25.5---
2024-05-22 04:54 amNNE 14 19------ 25.2- 25.2---
2024-05-22 04:43 amNNE 12 18------ 25.2- 25.2---
2024-05-22 04:33 amNNE 14 21------ 25.0- 25.0---
2024-05-22 04:24 amNNE 15 21------ 25.0- 25.0---
2024-05-22 04:13 amNNE 16 21------ 24.8- 24.8---
2024-05-22 04:03 amNNE 14 21------ 24.6- 24.6---
2024-05-22 03:54 amNNE 11 18------ 23.9- 23.9---
2024-05-22 03:43 amNNE 12 19------ 23.5- 23.5---
2024-05-22 03:33 amNNE 12 18------ 23.7- 23.7---
2024-05-22 03:23 amNNE 10 15------ 23.2- 23.2---
2024-05-22 03:13 amNNE 12 17------ 22.6- 22.6---
2024-05-22 03:03 amNNE 13 17------ 22.8- 22.8---
2024-05-22 02:54 amNNE 12 17------ 22.5- 22.5---
2024-05-22 02:43 amNNE 11 16------ 22.6- 22.6---
2024-05-22 02:34 amNNE 10 16------ 23.2- 23.2---
2024-05-22 02:24 amNNE 11 16------ 23.4- 23.4---
2024-05-22 02:13 amNNE 9 14------ 23.2- 23.2---
2024-05-22 02:03 amNNE 11 16------ 23.2- 23.2---
2024-05-22 01:54 amNNE 10 16------ 23.4- 23.4---
2024-05-22 01:43 amNNE 10 15------ 23.4- 23.4---
2024-05-22 01:33 amNNE 11 17------ 23.9- 23.9---
2024-05-22 01:14 amNNE 10 16------ 23.7- 23.7---
2024-05-22 01:03 amNNE 12 17------ 23.9- 23.9---
2024-05-22 12:54 amNNE 11 15------ 24.6- 24.6---
2024-05-22 12:53 amNNE 11 15------ 24.6- 24.6---
2024-05-22 12:44 amNNE 12 17------ 24.6- 24.6---
2024-05-22 12:24 amNNE 12 18------ 25.0- 25.0---
2024-05-22 12:14 amNNE 11 18------ 25.2- 25.2---
2024-05-22 12:04 amNNE 11 17------ 25.3- 25.3---
2024-05-21 11:54 pmNNE 11 18------ 25.7- 25.7---
2024-05-21 11:44 pmNNE 11 15------ 25.5- 25.5---
2024-05-21 11:34 pmNNE 12 15------ 25.0- 25.0---
2024-05-21 11:24 pmNNE 11 14------ 25.3- 25.3---
2024-05-21 11:14 pmNNE 13 18------ 25.5- 25.5---
2024-05-21 11:03 pmNNE 14 18------ 26.1- 26.1---
2024-05-21 10:53 pmNNE 13 19------ 26.2- 26.2---
2024-05-21 10:44 pmNNE 14 18------ 26.2- 26.2---
2024-05-21 10:34 pm NE 14 19------ 26.2- 26.2---
2024-05-21 10:23 pm NE 14 18------ 26.4- 26.4---
2024-05-21 10:13 pmNNE 12 18------ 26.2- 26.2---
2024-05-21 10:04 pmNNE 10 14------ 26.6- 26.6---
2024-05-21 09:53 pm NE 11 15------ 26.6- 26.6---
2024-05-21 09:43 pm NE 13 17------ 26.6- 26.6---
2024-05-21 09:34 pmNNE 14 18------ 26.8- 26.8---
2024-05-21 09:24 pm NE 16 21------ 27.1- 27.1---
2024-05-21 09:13 pmNNE 14 19------ 27.1- 27.1---
2024-05-21 09:04 pm NE 14 18------ 27.3- 27.3---
2024-05-21 08:54 pmNNE 12 18------ 28.0- 28.0---
2024-05-21 08:44 pmNNE 12 18------ 27.9- 27.9---
2024-05-21 08:34 pmNNE 13 18------ 27.9- 27.9---
2024-05-21 08:24 pmNNE 12 19------ 27.9- 27.9---
2024-05-21 08:14 pmNNE 12 18------ 28.0- 28.0---
2024-05-21 08:04 pmNNE 12 18------ 28.0- 27.9---
2024-05-21 07:54 pmNNE 12 18------ 27.9- 27.9---
2024-05-21 07:43 pmNNE 13 19------ 27.9- 27.7---
2024-05-21 07:34 pmNNE 14 19------ 28.0- 27.7---
2024-05-21 07:23 pmNNE 14 19------ 27.5- 27.3---
2024-05-21 07:14 pmNNE 14 20------ 27.7- 27.5---
2024-05-21 07:03 pmNNE 13 15------ 27.7- 27.5---
2024-05-21 06:14 pmNNE 14 19------ 27.9- 27.3---
2024-05-21 06:04 pm NE 14 19------ 28.2- 27.7---
2024-05-21 05:54 pmNNE 14 18------ 28.0- 27.3---
2024-05-21 05:44 pmNNE 14 19------ 28.4- 27.7---
2024-05-21 05:34 pmNNE 14 20------ 28.4- 27.5---
2024-05-21 05:24 pm NE 15 22------ 28.4- 27.3---
2024-05-21 05:14 pm NE 15 21------ 28.8- 27.7---
2024-05-21 05:04 pmNNE 15 21------ 28.8- 27.7---
2024-05-21 04:53 pm NE 14 19------ 29.3- 28.4---
2024-05-21 04:43 pm NE 14 18------ 29.3- 28.9---
2024-05-21 04:33 pm NE 13 19------ 29.7- 29.3---
2024-05-21 04:23 pmNNE 12 16------ 29.8- 29.1---
2024-05-21 04:14 pmNNE 12 17------ 29.8- 28.6---
2024-05-21 03:53 pmNNE 15 22------ 29.5- 28.0---
2024-05-21 03:44 pmNNE 14 19------ 29.5- 28.4---
2024-05-21 03:34 pmNNE 13 19------ 29.5- 28.6---
2024-05-21 03:24 pmNNE 11 17------ 29.3- 28.9---
2024-05-21 03:13 pmNNE 12 17------ 29.3- 28.6---
2024-05-21 03:04 pmNNE 12 18------ 29.5- 28.4---
2024-05-21 02:53 pmNNE 10 16------ 29.7- 28.4---
2024-05-21 02:44 pmNNE 11 16------ 29.3- 28.2---
2024-05-21 02:34 pmNNE 11 17------ 29.3- 28.6---
2024-05-21 02:24 pmNNE 12 18------ 29.1- 28.6---
2024-05-21 02:13 pmNNE 12 17------ 29.1- 28.6---
2024-05-21 02:04 pmNNE 11 16------ 29.1- 28.6---
2024-05-21 01:54 pmNNE 12 18------ 28.9- 28.6---
2024-05-21 01:44 pmNNE 12 18------ 28.9- 28.9---
2024-05-21 01:34 pmNNE 11 16------ 29.1- 29.1---
2024-05-21 01:24 pmNNE 11 16------ 29.3- 29.3---
2024-05-21 01:13 pmNNE 11 15------ 28.9- 28.9---
2024-05-21 01:04 pmNNE 11 15------ 29.1- 28.6---
2024-05-21 12:54 pm NE 10 14------ 28.9- 28.6---
2024-05-21 12:44 pmNNE 11 16------ 29.1- 28.8---
2024-05-21 12:34 pmNNE 11 16------ 28.9- 28.2---
2024-05-21 12:23 pmNNE 12 15------ 28.6- 28.4---
2024-05-21 12:13 pmNNE 11 14------ 28.8- 28.6---
2024-05-21 12:04 pmNNE 11 15------ 28.8- 28.2---
2024-05-21 11:54 am NE 10 14------ 28.8- 28.0---